createdAt,value
2018-05-21T00:00:18.029Z,55.02
2018-05-21T00:01:18.418Z,55.02
2018-05-21T00:02:18.349Z,55.51
2018-05-21T00:03:18.500Z,55.51
2018-05-21T00:04:18.674Z,55.96
2018-05-21T00:05:19.759Z,56.24
2018-05-21T00:06:19.010Z,56.53
2018-05-21T00:07:19.159Z,56.53
2018-05-21T00:08:19.317Z,56.34
2018-05-21T00:09:19.611Z,56.44
2018-05-21T00:10:19.702Z,57.30
2018-05-21T00:11:19.797Z,56.66
2018-05-21T00:12:20.008Z,57.59
2018-05-21T00:13:20.142Z,57.11
2018-05-21T00:14:20.383Z,57.59
2018-05-21T00:15:20.619Z,57.40
2018-05-21T00:16:20.942Z,57.01
2018-05-21T00:17:20.768Z,57.40
2018-05-21T00:18:20.940Z,58.07
2018-05-21T00:19:21.274Z,57.50
2018-05-21T00:20:21.268Z,58.45
2018-05-21T00:21:21.448Z,58.84
2018-05-21T00:22:21.596Z,57.97
2018-05-21T00:23:21.998Z,58.36
2018-05-21T00:24:22.174Z,58.17
2018-05-21T00:25:22.317Z,58.07
2018-05-21T00:26:22.313Z,57.97
2018-05-21T00:27:22.810Z,58.36
2018-05-21T00:28:22.662Z,58.36
2018-05-21T00:29:22.973Z,58.07
2018-05-21T00:30:23.113Z,58.36
2018-05-21T00:31:23.258Z,58.64
2018-05-21T00:32:23.485Z,57.88
2018-05-21T00:33:23.590Z,57.68
2018-05-21T00:34:23.754Z,57.78
2018-05-21T00:35:23.941Z,57.50
2018-05-21T00:36:24.058Z,58.07
2018-05-21T00:37:24.279Z,58.26
2018-05-21T00:38:24.434Z,58.45
2018-05-21T00:39:24.642Z,58.26
2018-05-21T00:40:24.948Z,58.36
2018-05-21T00:41:25.097Z,57.97
2018-05-21T00:42:25.226Z,58.45
2018-05-21T00:43:25.604Z,58.26
2018-05-21T00:44:25.528Z,58.36
2018-05-21T00:45:25.760Z,58.45
2018-05-21T00:46:25.768Z,58.84
2018-05-21T00:47:25.952Z,59.12
2018-05-21T00:48:26.110Z,58.55
2018-05-21T00:49:26.381Z,58.84
2018-05-21T00:50:26.531Z,58.55
2018-05-21T00:51:26.885Z,58.55
2018-05-21T00:52:26.963Z,58.94
2018-05-21T00:53:27.193Z,59.22
2018-05-21T00:54:27.346Z,58.26
2018-05-21T00:55:27.394Z,57.97
2018-05-21T00:56:27.723Z,58.36
2018-05-21T00:57:27.643Z,58.36
2018-05-21T00:58:27.823Z,58.94
2018-05-21T00:59:28.153Z,58.94
2018-05-21T01:00:28.157Z,58.84
2018-05-21T01:01:28.429Z,58.84
2018-05-21T01:02:28.473Z,59.03
2018-05-21T01:03:28.818Z,59.89
2018-05-21T01:04:28.915Z,60.08
2018-05-21T01:05:29.016Z,60.38
2018-05-21T01:06:29.191Z,61.33
2018-05-21T01:07:29.480Z,61.62
2018-05-21T01:08:29.548Z,60.95
2018-05-21T01:09:29.694Z,60.57
2018-05-21T01:10:29.852Z,60.95
2018-05-21T01:11:30.020Z,60.47
2018-05-21T01:12:30.192Z,60.35
2018-05-21T01:13:30.358Z,59.96
2018-05-21T01:14:30.529Z,60.05
2018-05-21T01:15:30.694Z,59.96
2018-05-21T01:16:30.948Z,60.53
2018-05-21T01:17:31.055Z,60.44
2018-05-21T01:18:31.236Z,60.44
2018-05-21T01:19:31.393Z,60.53
2018-05-21T01:20:31.555Z,60.72
2018-05-21T01:21:31.729Z,60.35
2018-05-21T01:22:31.895Z,60.72
2018-05-21T01:23:32.163Z,60.35
2018-05-21T01:24:32.214Z,61.02
2018-05-21T01:25:32.390Z,61.59
2018-05-21T01:26:32.552Z,61.69
2018-05-21T01:27:32.720Z,61.49
2018-05-21T01:28:32.887Z,61.59
2018-05-21T01:29:33.163Z,61.88
2018-05-21T01:30:33.411Z,61.78
2018-05-21T01:31:33.494Z,61.78
2018-05-21T01:32:33.778Z,61.59
2018-05-21T01:33:33.920Z,62.36
2018-05-21T01:34:34.060Z,63.70
2018-05-21T01:35:34.230Z,63.51
2018-05-21T01:36:34.391Z,63.22
2018-05-21T01:37:34.556Z,62.65
2018-05-21T01:38:34.745Z,62.36
2018-05-21T01:39:34.921Z,62.07
2018-05-21T01:40:35.082Z,62.16
2018-05-21T01:41:35.246Z,62.65
2018-05-21T01:42:35.558Z,62.45
2018-05-21T01:43:35.610Z,62.84
2018-05-21T01:44:35.770Z,63.32
2018-05-21T01:45:35.954Z,63.70
2018-05-21T01:46:36.123Z,64.28
2018-05-21T01:47:36.298Z,64.18
2018-05-21T01:48:36.467Z,63.70
2018-05-21T01:49:36.625Z,63.51
2018-05-21T01:50:36.789Z,63.12
2018-05-21T01:51:37.169Z,62.84
2018-05-21T01:52:37.084Z,62.74
2018-05-21T01:53:37.260Z,62.55
2018-05-21T01:54:37.428Z,62.62
2018-05-21T01:55:37.648Z,63.19
2018-05-21T01:56:37.819Z,63.76
2018-05-21T01:57:37.985Z,63.76
2018-05-21T01:58:38.156Z,63.67
2018-05-21T01:59:38.344Z,63.60
2018-05-21T02:00:38.491Z,63.48
2018-05-21T02:01:38.781Z,64.15
2018-05-21T02:02:38.933Z,63.96
2018-05-21T02:03:39.146Z,63.96
2018-05-21T02:04:39.217Z,63.67
2018-05-21T02:05:39.440Z,63.86
2018-05-21T02:06:39.507Z,64.53
2018-05-21T02:07:39.676Z,64.43
2018-05-21T02:08:39.911Z,64.63
2018-05-21T02:09:40.228Z,64.34
2018-05-21T02:10:40.200Z,64.34
2018-05-21T02:11:40.374Z,64.34
2018-05-21T02:12:40.709Z,64.82
2018-05-21T02:13:40.995Z,64.82
2018-05-21T02:14:40.973Z,65.11
2018-05-21T02:15:41.232Z,64.82
2018-05-21T02:16:41.238Z,64.82
2018-05-21T02:17:41.400Z,65.20
2018-05-21T02:18:41.564Z,65.01
2018-05-21T02:19:41.876Z,65.01
2018-05-21T02:20:42.774Z,65.01
2018-05-21T02:21:42.276Z,64.92
2018-05-21T02:22:42.443Z,65.20
2018-05-21T02:23:42.338Z,65.49
2018-05-21T02:24:42.554Z,65.01
2018-05-21T02:25:42.751Z,65.49
2018-05-21T02:26:42.973Z,65.68
2018-05-21T02:27:43.073Z,65.65
2018-05-21T02:28:43.135Z,65.65
2018-05-21T02:29:43.317Z,65.49
2018-05-21T02:30:43.467Z,65.59
2018-05-21T02:31:43.640Z,65.39
2018-05-21T02:32:43.825Z,66.26
2018-05-21T02:33:43.981Z,65.68
2018-05-21T02:34:44.130Z,65.97
2018-05-21T02:35:44.437Z,65.88
2018-05-21T02:36:44.429Z,66.22
2018-05-21T02:37:44.702Z,66.71
2018-05-21T02:38:44.761Z,66.51
2018-05-21T02:39:44.941Z,66.32
2018-05-21T02:40:45.115Z,66.42
2018-05-21T02:41:45.269Z,66.42
2018-05-21T02:42:45.531Z,66.42
2018-05-21T02:43:45.673Z,67.09
2018-05-21T02:44:45.863Z,66.71
2018-05-21T02:45:45.963Z,67.66
2018-05-21T02:46:46.072Z,67.47
2018-05-21T02:47:46.259Z,67.18
2018-05-21T02:48:46.692Z,67.85
2018-05-21T02:49:46.544Z,67.76
2018-05-21T02:50:46.805Z,67.95
2018-05-21T02:51:47.007Z,68.24
2018-05-21T02:52:47.007Z,68.05
2018-05-21T02:53:47.236Z,68.52
2018-05-21T02:54:47.500Z,68.81
2018-05-21T02:55:47.519Z,68.52
2018-05-21T02:56:47.683Z,68.91
2018-05-21T02:57:47.855Z,68.72
2018-05-21T02:58:49.047Z,68.62
2018-05-21T02:59:48.374Z,69.01
2018-05-21T03:00:48.571Z,68.72
2018-05-21T03:01:48.867Z,68.97
2018-05-21T03:02:48.856Z,69.35
2018-05-21T03:03:48.862Z,69.35
2018-05-21T03:04:49.119Z,69.54
2018-05-21T03:05:49.253Z,69.74
2018-05-21T03:06:49.420Z,69.64
2018-05-21T03:07:49.587Z,69.74
2018-05-21T03:08:49.755Z,69.35
2018-05-21T03:09:50.092Z,69.45
2018-05-21T03:10:50.293Z,69.64
2018-05-21T03:11:50.386Z,70.12
2018-05-21T03:12:50.610Z,69.93
2018-05-21T03:13:50.771Z,69.77
2018-05-21T03:14:50.816Z,70.25
2018-05-21T03:15:51.134Z,69.64
2018-05-21T03:16:51.308Z,70.21
2018-05-21T03:17:51.408Z,69.93
2018-05-21T03:18:51.788Z,69.68
2018-05-21T03:19:51.689Z,69.54
2018-05-21T03:20:52.008Z,70.06
2018-05-21T03:21:52.017Z,70.12
2018-05-21T03:22:52.186Z,69.93
2018-05-21T03:23:52.367Z,70.60
2018-05-21T03:24:52.697Z,70.41
2018-05-21T03:25:52.806Z,70.21
2018-05-21T03:26:52.881Z,70.79
2018-05-21T03:27:53.055Z,70.64
2018-05-21T03:28:53.198Z,70.73
2018-05-21T03:29:53.365Z,70.41
2018-05-21T03:30:53.531Z,70.31
2018-05-21T03:31:53.698Z,70.50
2018-05-21T03:32:54.079Z,70.50
2018-05-21T03:33:53.992Z,70.50
2018-05-21T03:34:54.161Z,70.79
2018-05-21T03:35:54.483Z,71.17
2018-05-21T03:36:54.521Z,71.08
2018-05-21T03:37:54.692Z,71.27
2018-05-21T03:38:54.856Z,71.27
2018-05-21T03:39:55.029Z,71.46
2018-05-21T03:40:55.291Z,71.56
2018-05-21T03:41:55.368Z,71.46
2018-05-21T03:42:55.680Z,71.37
2018-05-21T03:43:55.621Z,71.94
2018-05-21T03:44:55.783Z,71.08
2018-05-21T03:45:55.955Z,71.56
2018-05-21T03:46:56.307Z,71.46
2018-05-21T03:47:56.248Z,70.92
2018-05-21T03:48:56.422Z,70.89
2018-05-21T03:49:56.625Z,71.31
2018-05-21T03:50:56.771Z,71.21
2018-05-21T03:51:56.931Z,71.08
2018-05-21T03:52:57.099Z,70.44
2018-05-21T03:53:57.376Z,70.35
2018-05-21T03:54:57.444Z,70.73
2018-05-21T03:55:57.617Z,71.02
2018-05-21T03:56:57.799Z,71.02
2018-05-21T03:57:58.004Z,70.44
2018-05-21T03:58:58.069Z,70.92
2018-05-21T03:59:58.236Z,70.44
2018-05-21T04:00:58.412Z,70.54
2018-05-21T04:01:58.565Z,70.35
2018-05-21T04:02:58.839Z,70.92
2018-05-21T04:03:58.955Z,71.11
2018-05-21T04:04:59.122Z,71.02
2018-05-21T04:05:59.286Z,70.25
2018-05-21T04:06:59.472Z,70.35
2018-05-21T04:07:59.636Z,70.44
2018-05-21T04:08:59.803Z,70.44
2018-05-21T04:10:00.174Z,70.64
2018-05-21T04:11:00.090Z,70.25
2018-05-21T04:12:00.365Z,70.00
2018-05-21T04:13:00.422Z,69.90
2018-05-21T04:14:00.588Z,70.54
2018-05-21T04:15:00.762Z,70.64
2018-05-21T04:16:00.922Z,70.83
2018-05-21T04:17:01.236Z,71.25
2018-05-21T04:18:01.238Z,71.31
2018-05-21T04:19:01.416Z,71.05
2018-05-21T04:20:01.593Z,70.92
2018-05-21T04:21:01.739Z,71.11
2018-05-21T04:22:02.094Z,71.15
2018-05-21T04:23:02.225Z,70.48
2018-05-21T04:24:02.299Z,71.53
2018-05-21T04:25:02.448Z,71.05
2018-05-21T04:26:02.623Z,71.15
2018-05-21T04:27:02.791Z,71.05
2018-05-21T04:28:02.944Z,71.50
2018-05-21T04:29:03.319Z,71.15
2018-05-21T04:30:03.551Z,70.86
2018-05-21T04:31:03.495Z,70.86
2018-05-21T04:32:03.834Z,70.67
2018-05-21T04:33:03.820Z,70.67
2018-05-21T04:34:04.098Z,70.57
2018-05-21T04:35:04.085Z,70.29
2018-05-21T04:36:04.445Z,70.13
2018-05-21T04:37:04.426Z,69.90
2018-05-21T04:38:04.595Z,70.51
2018-05-21T04:39:04.763Z,69.33
2018-05-21T04:40:04.928Z,69.26
2018-05-21T04:41:05.210Z,69.17
2018-05-21T04:42:05.270Z,69.07
2018-05-21T04:43:05.433Z,68.88
2018-05-21T04:44:05.623Z,69.17
2018-05-21T04:45:05.774Z,68.79
2018-05-21T04:46:06.804Z,68.69
2018-05-21T04:47:06.266Z,68.73
2018-05-21T04:48:06.341Z,68.30
2018-05-21T04:49:06.519Z,68.59
2018-05-21T04:50:06.681Z,68.40
2018-05-21T04:51:06.986Z,68.50
2018-05-21T04:52:07.076Z,68.24
2018-05-21T04:53:07.399Z,68.05
2018-05-21T04:54:07.568Z,67.57
2018-05-21T04:55:07.735Z,68.24
2018-05-21T04:56:07.879Z,67.96
2018-05-21T04:57:08.199Z,67.86
2018-05-21T04:58:08.213Z,67.76
2018-05-21T04:59:08.580Z,67.67
2018-05-21T05:00:08.534Z,67.22
2018-05-21T05:01:08.696Z,67.22
2018-05-21T05:02:08.854Z,67.32
2018-05-21T05:03:09.123Z,66.74
2018-05-21T05:04:09.463Z,66.55
2018-05-21T05:05:09.388Z,66.84
2018-05-21T05:06:09.754Z,66.93
2018-05-21T05:07:09.783Z,66.84
2018-05-21T05:08:09.953Z,67.51
2018-05-21T05:09:10.115Z,67.51
2018-05-21T05:10:10.290Z,67.32
2018-05-21T05:11:10.451Z,67.51
2018-05-21T05:12:10.624Z,67.51
2018-05-21T05:13:10.792Z,67.41
2018-05-21T05:14:10.960Z,67.90
2018-05-21T05:15:11.131Z,67.22
2018-05-21T05:16:11.303Z,66.93
2018-05-21T05:17:11.469Z,66.84
2018-05-21T05:18:11.769Z,66.84
2018-05-21T05:19:11.816Z,67.13
2018-05-21T05:20:12.152Z,67.32
2018-05-21T05:21:12.220Z,67.07
2018-05-21T05:22:12.356Z,66.97
2018-05-21T05:23:12.517Z,66.49
2018-05-21T05:24:12.701Z,66.68
2018-05-21T05:25:12.856Z,67.07
2018-05-21T05:26:13.222Z,66.77
2018-05-21T05:27:13.321Z,66.58
2018-05-21T05:28:13.365Z,66.61
2018-05-21T05:29:13.599Z,66.71
2018-05-21T05:30:13.723Z,66.33
2018-05-21T05:31:13.892Z,66.33
2018-05-21T05:32:14.057Z,66.00
2018-05-21T05:33:14.223Z,66.33
2018-05-21T05:34:14.538Z,66.14
2018-05-21T05:35:14.652Z,66.68
2018-05-21T05:36:14.980Z,66.71
2018-05-21T05:37:15.139Z,67.10
2018-05-21T05:38:15.076Z,66.91
2018-05-21T05:39:15.301Z,66.42
2018-05-21T05:40:15.492Z,66.52
2018-05-21T05:41:15.640Z,66.23
2018-05-21T05:42:15.815Z,66.14
2018-05-21T05:43:16.737Z,66.23
2018-05-21T05:44:16.798Z,66.04
2018-05-21T05:45:17.029Z,65.56
2018-05-21T05:46:17.653Z,65.69
2018-05-21T05:47:16.978Z,65.69
2018-05-21T05:48:18.304Z,65.88
2018-05-21T05:49:18.210Z,66.36
2018-05-21T05:50:18.241Z,65.40
2018-05-21T05:51:17.692Z,65.50
2018-05-21T05:52:17.716Z,65.50
2018-05-21T05:53:18.626Z,66.36
2018-05-21T05:54:18.512Z,66.07
2018-05-21T05:55:18.408Z,66.94
2018-05-21T05:56:18.870Z,66.94
2018-05-21T05:57:19.892Z,66.74
2018-05-21T05:58:19.455Z,66.27
2018-05-21T05:59:19.071Z,65.78
2018-05-21T06:00:18.881Z,65.50
2018-05-21T06:01:19.058Z,65.53
2018-05-21T06:02:19.228Z,65.50
2018-05-21T06:03:19.416Z,65.33
2018-05-21T06:04:19.648Z,65.24
2018-05-21T06:05:19.715Z,65.14
2018-05-21T06:06:19.883Z,65.05
2018-05-21T06:07:20.047Z,65.24
2018-05-21T06:08:20.218Z,65.33
2018-05-21T06:09:20.527Z,65.33
2018-05-21T06:10:20.496Z,64.86
2018-05-21T06:11:20.679Z,65.37
2018-05-21T06:12:20.862Z,65.33
2018-05-21T06:13:21.030Z,65.08
2018-05-21T06:14:21.208Z,64.47
2018-05-21T06:15:21.372Z,64.95
2018-05-21T06:16:21.535Z,64.02
2018-05-21T06:17:21.710Z,63.82
2018-05-21T06:18:21.876Z,64.12
2018-05-21T06:19:22.060Z,63.54
2018-05-21T06:20:22.223Z,63.73
2018-05-21T06:21:22.396Z,64.02
2018-05-21T06:22:22.565Z,63.25
2018-05-21T06:23:22.746Z,63.73
2018-05-21T06:24:22.925Z,63.34
2018-05-21T06:25:23.370Z,63.25
2018-05-21T06:26:23.302Z,62.70
2018-05-21T06:27:23.475Z,62.90
2018-05-21T06:28:23.638Z,62.70
2018-05-21T06:29:23.839Z,62.41
2018-05-21T06:30:23.972Z,62.60
2018-05-21T06:31:24.140Z,62.60
2018-05-21T06:32:24.499Z,62.32
2018-05-21T06:33:24.537Z,61.58
2018-05-21T06:34:24.733Z,61.48
2018-05-21T06:35:24.874Z,61.96
2018-05-21T06:36:25.045Z,61.38
2018-05-21T06:37:25.322Z,61.00
2018-05-21T06:38:25.394Z,60.80
2018-05-21T06:39:25.563Z,61.10
2018-05-21T06:40:25.730Z,60.80
2018-05-21T06:41:25.913Z,60.61
2018-05-21T06:42:26.076Z,60.80
2018-05-21T06:43:26.627Z,60.80
2018-05-21T06:44:26.489Z,60.74
2018-05-21T06:45:26.618Z,59.97
2018-05-21T06:46:26.944Z,60.64
2018-05-21T06:47:26.983Z,60.35
2018-05-21T06:48:27.430Z,59.97
2018-05-21T06:49:27.373Z,59.58
2018-05-21T06:50:27.541Z,59.10
2018-05-21T06:51:27.708Z,59.20
2018-05-21T06:52:27.901Z,58.91
2018-05-21T06:53:28.913Z,59.20
2018-05-21T06:56:01.296Z,59.13
2018-05-21T06:57:01.468Z,59.42
2018-05-21T06:58:01.641Z,58.36
2018-05-21T06:59:01.816Z,58.36
2018-05-21T07:00:02.002Z,57.87
2018-05-21T07:01:02.149Z,57.59
2018-05-21T07:02:02.533Z,57.87
2018-05-21T07:03:02.459Z,58.36
2018-05-21T07:04:02.634Z,58.36
2018-05-21T07:05:02.809Z,57.78
2018-05-21T07:06:02.973Z,57.39
2018-05-21T07:07:03.318Z,57.68
2018-05-21T07:08:03.484Z,57.87
2018-05-21T07:09:03.494Z,58.45
2018-05-21T07:10:03.648Z,58.26
2018-05-21T07:11:03.828Z,58.77
2018-05-21T07:12:04.174Z,58.00
2018-05-21T07:13:04.146Z,58.87
2018-05-21T07:14:04.314Z,58.87
2018-05-21T07:15:04.694Z,57.62
2018-05-21T07:16:04.717Z,57.14
2018-05-21T07:17:05.150Z,57.23
2018-05-21T07:18:05.208Z,57.84
2018-05-21T07:19:05.245Z,57.32
2018-05-21T07:20:05.432Z,57.74
2018-05-21T07:21:05.827Z,56.94
2018-05-21T07:22:05.731Z,56.84
2018-05-21T07:23:05.895Z,56.58
2018-05-21T07:24:06.068Z,56.87
2018-05-21T07:25:06.241Z,57.45
2018-05-21T07:26:06.411Z,56.96
2018-05-21T07:27:06.583Z,57.06
2018-05-21T07:28:06.819Z,57.35
2018-05-21T07:29:06.989Z,57.64
2018-05-21T07:30:07.047Z,57.64
2018-05-21T07:31:07.225Z,56.68
2018-05-21T07:32:07.394Z,56.87
2018-05-21T07:33:07.569Z,57.26
2018-05-21T07:34:07.742Z,56.96
2018-05-21T07:35:07.910Z,57.06
2018-05-21T07:36:08.095Z,56.58
2018-05-21T07:37:08.250Z,56.48
2018-05-21T07:38:08.422Z,56.29
2018-05-21T07:39:08.603Z,56.48
2018-05-21T07:40:08.788Z,56.80
2018-05-21T07:41:08.956Z,57.57
2018-05-21T07:42:09.134Z,57.19
2018-05-21T07:43:09.308Z,56.80
2018-05-21T07:44:09.537Z,56.90
2018-05-21T07:45:09.661Z,56.73
2018-05-21T07:46:09.839Z,56.22
2018-05-21T07:47:10.004Z,56.32
2018-05-21T07:48:10.185Z,56.71
2018-05-21T07:49:10.347Z,56.73
2018-05-21T07:50:10.534Z,56.83
2018-05-21T07:51:10.683Z,56.63
2018-05-21T07:52:10.859Z,56.54
2018-05-21T07:53:11.268Z,56.95
2018-05-21T07:54:12.285Z,56.93
2018-05-21T07:55:11.641Z,56.45
2018-05-21T07:56:11.607Z,55.60
2018-05-21T07:57:12.190Z,55.19
2018-05-21T07:58:12.007Z,54.51
2018-05-21T07:59:12.083Z,53.67
2018-05-21T08:00:12.347Z,53.38
2018-05-21T08:01:13.375Z,53.86
2018-05-21T08:02:12.653Z,54.53
2018-05-21T08:03:13.265Z,53.96
2018-05-21T08:04:13.790Z,53.77
2018-05-21T08:05:13.522Z,53.96
2018-05-21T08:06:13.345Z,54.35
2018-05-21T08:07:13.667Z,54.44
2018-05-21T08:08:13.877Z,54.25
2018-05-21T08:09:14.365Z,54.66
2018-05-21T08:10:14.165Z,53.79
2018-05-21T08:11:14.272Z,54.05
2018-05-21T08:12:14.394Z,53.28
2018-05-21T08:13:14.621Z,52.14
2018-05-21T08:14:14.843Z,52.44
2018-05-21T08:15:15.123Z,51.47
2018-05-21T08:16:15.274Z,52.24
2018-05-21T08:17:15.358Z,51.66
2018-05-21T08:18:15.472Z,51.59
2018-05-21T08:19:15.661Z,51.40
2018-05-21T08:20:15.839Z,52.17
2018-05-21T08:21:15.998Z,51.78
2018-05-21T08:22:16.237Z,51.50
2018-05-21T08:23:16.344Z,51.20
2018-05-21T08:24:16.509Z,51.62
2018-05-21T08:25:16.765Z,51.52
2018-05-21T08:26:16.867Z,51.52
2018-05-21T08:27:17.084Z,50.74
2018-05-21T08:28:17.225Z,50.94
2018-05-21T08:29:17.340Z,50.35
2018-05-21T08:30:17.390Z,49.58
2018-05-21T08:31:17.563Z,49.29
2018-05-21T08:32:17.734Z,49.12
2018-05-21T08:33:17.910Z,48.52
2018-05-21T08:34:18.157Z,48.74
2018-05-21T08:35:18.345Z,49.00
2018-05-21T08:36:18.571Z,48.83
2018-05-21T08:37:18.552Z,48.64
2018-05-21T08:38:18.715Z,49.32
2018-05-21T08:39:19.026Z,49.22
2018-05-21T08:40:19.082Z,48.54
2018-05-21T08:41:19.297Z,48.44
2018-05-21T08:42:19.451Z,48.74
2018-05-21T08:43:19.571Z,48.74
2018-05-21T08:44:19.733Z,48.76
2018-05-21T08:45:19.914Z,47.69
2018-05-21T08:46:20.441Z,47.30
2018-05-21T08:47:20.278Z,47.02
2018-05-21T08:48:20.463Z,47.20
2018-05-21T08:49:20.656Z,47.20
2018-05-21T08:51:13.906Z,45.56
2018-05-21T08:52:14.175Z,45.95
2018-05-21T08:53:14.151Z,46.04
2018-05-21T08:54:14.522Z,45.85
2018-05-21T08:55:14.750Z,45.87
2018-05-21T08:56:14.856Z,45.97
2018-05-21T08:57:14.977Z,44.81
2018-05-21T08:58:14.942Z,44.61
2018-05-21T08:59:15.121Z,44.64
2018-05-21T09:00:15.292Z,44.34
2018-05-21T09:01:15.460Z,43.76
2018-05-21T09:02:15.649Z,43.78
2018-05-21T09:03:15.812Z,44.07
2018-05-21T09:04:15.991Z,43.12
2018-05-21T09:05:16.173Z,42.15
2018-05-21T09:06:16.357Z,42.25
2018-05-21T09:07:17.274Z,42.76
2018-05-21T09:08:18.268Z,41.49
2018-05-21T09:09:16.821Z,41.24
2018-05-21T09:10:17.003Z,40.01
2018-05-21T09:11:17.293Z,38.69
2018-05-21T09:12:17.332Z,36.39
2018-05-21T09:13:17.525Z,34.78
2018-05-21T09:14:17.699Z,32.70
2018-05-21T09:15:17.899Z,30.98
2018-05-21T09:16:18.111Z,29.55
2018-05-21T09:17:18.223Z,27.62
2018-05-21T09:18:18.409Z,26.47
2018-05-21T09:19:18.585Z,25.51
2018-05-21T09:20:18.768Z,24.84
2018-05-21T09:21:18.970Z,24.56
2018-05-21T09:22:19.142Z,23.49
2018-05-21T09:23:19.328Z,23.00
2018-05-21T09:24:19.512Z,22.92
2018-05-21T09:25:19.697Z,21.14
2018-05-21T09:26:19.881Z,21.13
2018-05-21T09:27:20.102Z,21.16
2018-05-21T09:28:20.258Z,20.76
2018-05-21T09:29:20.447Z,20.78
2018-05-21T09:30:20.634Z,20.27
2018-05-21T09:31:20.912Z,20.95
2018-05-21T09:32:21.024Z,20.84
2018-05-21T09:33:21.180Z,21.34
2018-05-21T09:34:21.363Z,20.68
2018-05-21T09:35:21.536Z,20.00
2018-05-21T09:36:21.719Z,20.29
2018-05-21T09:37:21.911Z,20.29
2018-05-21T09:38:22.091Z,20.09
2018-05-21T09:39:22.279Z,19.49
2018-05-21T09:40:22.489Z,19.89
2018-05-21T09:41:27.282Z,19.23
2018-05-21T09:42:22.839Z,19.13
2018-05-21T09:43:23.029Z,19.34
2018-05-21T09:44:23.788Z,18.86
2018-05-21T09:45:23.342Z,18.37
2018-05-21T09:46:25.205Z,18.07
2018-05-21T09:47:23.900Z,17.86
2018-05-21T09:48:23.923Z,18.07
2018-05-21T09:49:24.129Z,17.57
2018-05-21T09:50:25.294Z,17.56
2018-05-21T09:51:25.405Z,16.68
2018-05-21T09:52:24.608Z,17.35
2018-05-21T09:53:26.900Z,17.37
2018-05-21T09:54:24.964Z,17.67
2018-05-21T09:55:25.161Z,17.49
2018-05-21T09:56:25.325Z,16.90
2018-05-21T09:57:25.524Z,17.60
2018-05-21T09:58:25.714Z,16.76
2018-05-21T09:59:25.908Z,17.35
2018-05-21T10:00:26.095Z,17.52
2018-05-21T10:01:26.287Z,17.85
2018-05-21T10:02:26.479Z,16.96
2018-05-21T10:03:26.760Z,16.98
2018-05-21T10:04:26.890Z,16.79
2018-05-21T10:05:27.083Z,16.38
2018-05-21T10:06:27.273Z,16.49
2018-05-21T10:07:27.464Z,16.48
2018-05-21T10:08:27.658Z,16.38
2018-05-21T10:09:27.846Z,16.66
2018-05-21T10:10:28.065Z,16.38
2018-05-21T10:11:28.245Z,16.39
2018-05-21T10:12:28.400Z,16.31
2018-05-21T10:13:28.594Z,15.70
2018-05-21T10:14:28.999Z,16.17
2018-05-21T10:15:28.946Z,15.88
2018-05-21T10:16:29.126Z,15.97
2018-05-21T10:17:29.317Z,16.57
2018-05-21T10:18:29.509Z,16.48
2018-05-21T10:19:29.716Z,15.39
2018-05-21T10:20:29.882Z,15.31
2018-05-21T10:21:30.814Z,14.83
2018-05-21T10:22:30.223Z,14.34
2018-05-21T10:23:30.431Z,14.53
2018-05-21T10:24:30.601Z,15.11
2018-05-21T10:25:30.813Z,15.12
2018-05-21T10:26:31.051Z,14.63
2018-05-21T10:27:31.221Z,14.53
2018-05-21T10:28:31.404Z,14.93
2018-05-21T10:29:31.566Z,14.25
2018-05-21T10:30:31.784Z,14.43
2018-05-21T10:31:31.942Z,15.12
2018-05-21T10:32:32.136Z,15.01
2018-05-21T10:33:32.364Z,15.21
2018-05-21T10:34:32.550Z,14.83
2018-05-21T10:35:32.760Z,14.84
2018-05-21T10:36:32.950Z,14.26
2018-05-21T10:37:33.214Z,13.47
2018-05-21T10:38:33.373Z,13.87
2018-05-21T10:39:33.529Z,13.47
2018-05-21T10:40:33.755Z,14.54
2018-05-21T10:41:33.926Z,13.76
2018-05-21T10:42:34.159Z,13.27
2018-05-21T10:43:34.344Z,12.39
2018-05-21T10:44:34.547Z,13.18
2018-05-21T10:45:34.738Z,13.38
2018-05-21T10:46:34.977Z,13.18
2018-05-21T10:47:35.102Z,12.79
2018-05-21T10:48:35.289Z,12.68
2018-05-21T10:49:35.487Z,12.88
2018-05-21T10:50:35.672Z,12.99
2018-05-21T10:51:35.872Z,13.28
2018-05-21T10:52:36.062Z,12.89
2018-05-21T10:53:36.254Z,13.75
2018-05-21T10:54:36.479Z,14.92
2018-05-21T10:55:36.712Z,15.79
2018-05-21T10:56:36.897Z,15.99
2018-05-21T10:57:37.219Z,15.98
2018-05-21T10:58:37.291Z,16.86
2018-05-21T10:59:37.470Z,17.73
2018-05-21T11:00:37.705Z,18.52
2018-05-21T11:01:37.879Z,18.32
2018-05-21T11:02:38.030Z,18.21
2018-05-21T11:03:38.222Z,18.20
2018-05-21T11:04:38.478Z,19.09
2018-05-21T11:05:38.602Z,19.09
2018-05-21T11:06:38.780Z,19.56
2018-05-21T11:07:38.968Z,19.95
2018-05-21T11:08:39.153Z,20.43
2018-05-21T11:09:39.340Z,20.42
2018-05-21T11:10:39.529Z,20.90
2018-05-21T11:11:39.735Z,21.59
2018-05-21T11:12:39.898Z,21.20
2018-05-21T11:13:40.764Z,21.20
2018-05-21T11:14:40.325Z,20.61
2018-05-21T11:15:41.207Z,20.12
2018-05-21T11:16:40.857Z,20.81
2018-05-21T11:17:40.877Z,21.29
2018-05-21T11:18:41.063Z,21.20
2018-05-21T11:19:41.253Z,21.68
2018-05-21T11:20:41.477Z,21.59
2018-05-21T11:21:41.641Z,22.09
2018-05-21T11:22:41.816Z,21.50
2018-05-21T11:23:41.994Z,21.31
2018-05-21T11:24:42.204Z,21.10
2018-05-21T11:25:42.353Z,21.58
2018-05-21T11:26:42.539Z,22.17
2018-05-21T11:27:42.758Z,22.47
2018-05-21T11:28:42.964Z,22.77
2018-05-21T11:29:43.112Z,22.86
2018-05-21T11:30:43.356Z,22.06
2018-05-21T11:31:43.506Z,22.64
2018-05-21T11:32:43.697Z,22.45
2018-05-21T11:33:43.894Z,22.56
2018-05-21T11:34:44.076Z,22.55
2018-05-21T11:35:44.323Z,22.35
2018-05-21T11:36:44.439Z,22.25
2018-05-21T11:37:44.624Z,22.45
2018-05-21T11:38:44.846Z,22.84
2018-05-21T11:39:44.994Z,22.94
2018-05-21T11:40:45.195Z,23.53
2018-05-21T11:41:45.368Z,22.75
2018-05-21T11:42:45.541Z,22.67
2018-05-21T11:43:45.771Z,23.15
2018-05-21T11:44:45.953Z,22.06
2018-05-21T11:45:46.194Z,22.06
2018-05-21T11:46:46.415Z,22.05
2018-05-21T11:47:46.571Z,22.55
2018-05-21T11:48:46.616Z,22.75
2018-05-21T11:49:46.831Z,22.84
2018-05-21T11:50:47.007Z,23.15
2018-05-21T11:51:47.279Z,23.24
2018-05-21T11:52:47.353Z,23.63
2018-05-21T11:53:47.547Z,22.64
2018-05-21T11:54:47.703Z,23.13
2018-05-21T11:55:47.918Z,22.64
2018-05-21T11:56:48.103Z,23.03
2018-05-21T11:57:48.275Z,22.99
2018-05-21T11:58:48.461Z,23.02
2018-05-21T11:59:48.639Z,22.82
2018-05-21T12:00:48.877Z,23.50
2018-05-21T12:01:49.011Z,23.69
2018-05-21T12:02:49.199Z,23.02
2018-05-21T12:03:49.388Z,23.10
2018-05-21T12:04:49.587Z,23.49
2018-05-21T12:05:49.764Z,23.78
2018-05-21T12:06:50.014Z,23.49
2018-05-21T12:07:50.141Z,23.20
2018-05-21T12:08:50.346Z,22.99
2018-05-21T12:10:42.724Z,24.07
2018-05-21T12:11:42.881Z,23.88
2018-05-21T12:12:43.057Z,24.16
2018-05-21T12:13:43.259Z,23.96
2018-05-21T12:14:43.317Z,23.86
2018-05-21T12:15:43.521Z,24.16
2018-05-21T12:16:43.704Z,24.35
2018-05-21T12:17:43.894Z,24.43
2018-05-21T12:18:44.089Z,23.95
2018-05-21T12:19:44.273Z,24.16
2018-05-21T12:20:44.467Z,23.97
2018-05-21T12:21:44.643Z,23.50
2018-05-21T12:22:44.848Z,23.09
2018-05-21T12:23:45.106Z,22.99
2018-05-21T12:24:45.246Z,22.99
2018-05-21T12:25:46.186Z,22.60
2018-05-21T12:26:45.669Z,22.31
2018-05-21T12:27:45.825Z,22.23
2018-05-21T12:28:46.077Z,22.92
2018-05-21T12:29:46.178Z,22.13
2018-05-21T12:30:46.366Z,21.94
2018-05-21T12:31:46.553Z,22.44
2018-05-21T12:32:46.738Z,22.81
2018-05-21T12:33:46.909Z,22.83
2018-05-21T12:34:47.110Z,22.52
2018-05-21T12:35:47.292Z,22.62
2018-05-21T12:36:47.488Z,21.65
2018-05-21T12:37:47.668Z,20.96
2018-05-21T12:38:47.869Z,22.41
2018-05-21T12:39:48.046Z,23.09
2018-05-21T12:40:48.244Z,22.88
2018-05-21T12:41:48.415Z,23.38
2018-05-21T12:42:48.603Z,23.57
2018-05-21T12:43:48.796Z,24.24
2018-05-21T12:44:49.005Z,24.52
2018-05-21T12:45:49.197Z,25.20
2018-05-21T12:46:49.439Z,25.77
2018-05-21T12:47:49.534Z,25.66
2018-05-21T12:48:49.723Z,26.33
2018-05-21T12:49:49.902Z,26.92
2018-05-21T12:50:50.078Z,26.72
2018-05-21T12:51:50.261Z,27.29
2018-05-21T12:52:50.442Z,27.39
2018-05-21T12:53:50.619Z,27.78
2018-05-21T12:54:50.813Z,28.26
2018-05-21T12:55:51.079Z,28.05
2018-05-21T12:56:51.220Z,28.14
2018-05-21T12:57:51.392Z,28.54